PWSweather.com
Personal Weather Stations
Station Observations
KNHHOOKS9
Hooksett Pinnacle Peak, Hooksett, NH 03106

Hooksett Pinnacle PeakHooksett, NH 03106

Lat: 43.0954576, Lon: -71.46843790000003

Elevation: 298

Station Type: David VP2

Latest ConditionsUpdated 6:00:06 PM EST Friday, Nov 17, 2017
Currently Today's Max Today's Min Today's Average
Temperature 31.5°F-0.3°C 37.4°F3.0°C 31.5°F-0.3°C 34.8°F1.6°C
Dew Point 19.2°F-7.1°C 35.2°F1.8°C 18.4°F-7.6°C 27.1°F-2.7°C
Winds Calm Calm 11.0 mph N17.7 kmh N - 2.6 mph 4.2 kmh
Wind Gusts -- 18.0 mph29.0 kmh - -
Humidity 60% 97% 56% 74%
Pressure 29.97 in1014.9 mb 29.97 in1014.9 mb 29.68 in1005.1 mb -
Hour Temp Dew Point Humidity Winds Wind Gusts Pressure Precip Precip Rate Daily Precip Total
06:00 PM 31.5°F-0.3°C 19.2°F-7.1°C 60% Calm Calm -- 29.97 in1014.9 mb 0.00 in0.0 mm 0.00 in0.0 mm 0.00 in0.0 mm
05:50 PM 32.0°F0.0°C 19.3°F-7.1°C 59% Calm Calm -- 29.96 in1014.6 mb 0.00 in0.0 mm 0.00 in0.0 mm 0.00 in0.0 mm
05:40 PM 32.3°F0.2°C 18.4°F-7.6°C 56% Calm Calm 3.0 mph4.8 kmh 29.96 in1014.6 mb 0.00 in0.0 mm 0.00 in0.0 mm 0.00 in0.0 mm
05:30 PM 32.5°F0.3°C 18.6°F-7.4°C 56% Calm Calm -- 29.96 in1014.6 mb 0.00 in0.0 mm 0.00 in0.0 mm 0.00 in0.0 mm
05:20 PM 32.7°F0.4°C 19.2°F-7.1°C 57% 4.0 mph NE6.4 kmh NE 4.0 mph6.4 kmh 29.96 in1014.6 mb 0.00 in0.0 mm 0.00 in0.0 mm 0.00 in0.0 mm
05:10 PM 32.7°F0.4°C 19.6°F-6.9°C 58% Calm Calm -- 29.96 in1014.6 mb 0.00 in0.0 mm 0.00 in0.0 mm 0.00 in0.0 mm
05:00 PM 32.8°F0.4°C 19.7°F-6.8°C 58% Calm Calm -- 29.95 in1014.2 mb 0.00 in0.0 mm 0.00 in0.0 mm 0.00 in0.0 mm
04:50 PM 33.0°F0.6°C 20.3°F-6.5°C 59% 1.0 mph NE1.6 kmh NE 6.0 mph9.7 kmh 29.95 in1014.2 mb 0.00 in0.0 mm 0.00 in0.0 mm 0.00 in0.0 mm
04:40 PM 33.3°F0.7°C 20.1°F-6.6°C 58% Calm Calm -- 29.95 in1014.2 mb 0.00 in0.0 mm 0.00 in0.0 mm 0.00 in0.0 mm
04:30 PM 33.5°F0.8°C 20.3°F-6.5°C 58% 4.0 mph N6.4 kmh N 8.0 mph12.9 kmh 29.95 in1014.2 mb 0.00 in0.0 mm 0.00 in0.0 mm 0.00 in0.0 mm
04:20 PM 33.7°F0.9°C 20.5°F-6.4°C 58% Calm Calm -- 29.95 in1014.2 mb 0.00 in0.0 mm 0.00 in0.0 mm 0.00 in0.0 mm
04:10 PM 34.0°F1.1°C 21.2°F-6.0°C 59% Calm Calm -- 29.95 in1014.2 mb 0.00 in0.0 mm 0.00 in0.0 mm 0.00 in0.0 mm
04:00 PM 34.2°F1.2°C 21.0°F-6.1°C 58% Calm Calm -- 29.94 in1013.9 mb 0.00 in0.0 mm 0.00 in0.0 mm 0.00 in0.0 mm
03:50 PM 34.3°F1.3°C 21.1°F-6.1°C 58% 3.0 mph ENE4.8 kmh ENE 10.0 mph16.1 kmh 29.94 in1013.9 mb 0.00 in0.0 mm 0.00 in0.0 mm 0.00 in0.0 mm
03:40 PM 34.3°F1.3°C 21.9°F-5.6°C 60% 2.0 mph N3.2 kmh N 7.0 mph11.3 kmh 29.94 in1013.9 mb 0.00 in0.0 mm 0.00 in0.0 mm 0.00 in0.0 mm
03:30 PM 34.5°F1.4°C 22.5°F-5.3°C 61% 3.0 mph N4.8 kmh N 3.0 mph4.8 kmh 29.93 in1013.5 mb 0.00 in0.0 mm 0.00 in0.0 mm 0.00 in0.0 mm
03:20 PM 34.6°F1.4°C 22.9°F-5.1°C 62% Calm Calm -- 29.93 in1013.5 mb 0.00 in0.0 mm 0.00 in0.0 mm 0.00 in0.0 mm
03:10 PM 34.6°F1.4°C 22.9°F-5.1°C 62% 3.0 mph ENE4.8 kmh ENE 4.0 mph6.4 kmh 29.93 in1013.5 mb 0.00 in0.0 mm 0.00 in0.0 mm 0.00 in0.0 mm
03:00 PM 34.5°F1.4°C 23.2°F-4.9°C 63% 1.0 mph NNW1.6 kmh NNW 4.0 mph6.4 kmh 29.92 in1013.2 mb 0.00 in0.0 mm 0.00 in0.0 mm 0.00 in0.0 mm
02:50 PM 34.5°F1.4°C 23.2°F-4.9°C 63% 2.0 mph SSW3.2 kmh SSW 8.0 mph12.9 kmh 29.92 in1013.2 mb 0.00 in0.0 mm 0.00 in0.0 mm 0.00 in0.0 mm
02:40 PM 34.5°F1.4°C 23.2°F-4.9°C 63% 1.0 mph S1.6 kmh S 4.0 mph6.4 kmh 29.91 in1012.9 mb 0.00 in0.0 mm 0.00 in0.0 mm 0.00 in0.0 mm
02:30 PM 34.6°F1.4°C 22.9°F-5.1°C 62% 5.0 mph SW8.0 kmh SW 5.0 mph8.0 kmh 29.92 in1013.2 mb 0.00 in0.0 mm 0.00 in0.0 mm 0.00 in0.0 mm
02:20 PM 34.8°F1.6°C 23.5°F-4.7°C 63% 1.0 mph SSE1.6 kmh SSE 6.0 mph9.7 kmh 29.91 in1012.9 mb 0.00 in0.0 mm 0.00 in0.0 mm 0.00 in0.0 mm
02:10 PM 35.0°F1.7°C 23.3°F-4.8°C 62% 3.0 mph NE4.8 kmh NE 7.0 mph11.3 kmh 29.91 in1012.9 mb 0.00 in0.0 mm 0.00 in0.0 mm 0.00 in0.0 mm
02:00 PM 35.1°F1.7°C 23.4°F-4.8°C 62% 3.0 mph NE4.8 kmh NE 8.0 mph12.9 kmh 29.92 in1013.2 mb 0.00 in0.0 mm 0.00 in0.0 mm 0.00 in0.0 mm
01:50 PM 35.4°F1.9°C 23.7°F-4.6°C 62% 4.0 mph N6.4 kmh N 11.0 mph17.7 kmh 29.91 in1012.9 mb 0.00 in0.0 mm 0.00 in0.0 mm 0.00 in0.0 mm
01:40 PM 35.5°F1.9°C 23.8°F-4.6°C 62% 1.0 mph E1.6 kmh E 7.0 mph11.3 kmh 29.91 in1012.9 mb 0.00 in0.0 mm 0.00 in0.0 mm 0.00 in0.0 mm
01:30 PM 35.4°F1.9°C 23.7°F-4.6°C 62% 5.0 mph NW8.0 kmh NW 14.0 mph22.5 kmh 29.91 in1012.9 mb 0.00 in0.0 mm 0.00 in0.0 mm 0.00 in0.0 mm
01:20 PM 35.6°F2.0°C 23.9°F-4.5°C 62% 5.0 mph SW8.0 kmh SW 8.0 mph12.9 kmh 29.90 in1012.5 mb 0.00 in0.0 mm 0.00 in0.0 mm 0.00 in0.0 mm
01:10 PM 35.6°F2.0°C 23.9°F-4.5°C 62% 6.0 mph ENE9.7 kmh ENE 8.0 mph12.9 kmh 29.91 in1012.9 mb 0.00 in0.0 mm 0.00 in0.0 mm 0.00 in0.0 mm
01:00 PM 35.8°F2.1°C 23.7°F-4.6°C 61% 4.0 mph ENE6.4 kmh ENE 8.0 mph12.9 kmh 29.90 in1012.5 mb 0.00 in0.0 mm 0.00 in0.0 mm 0.00 in0.0 mm
12:50 PM 36.7°F2.6°C 24.1°F-4.4°C 60% 2.0 mph NNE3.2 kmh NNE 12.0 mph19.3 kmh 29.90 in1012.5 mb 0.00 in0.0 mm 0.00 in0.0 mm 0.00 in0.0 mm
12:40 PM 36.8°F2.7°C 24.6°F-4.1°C 61% 3.0 mph ENE4.8 kmh ENE 7.0 mph11.3 kmh 29.89 in1012.2 mb 0.00 in0.0 mm 0.00 in0.0 mm 0.00 in0.0 mm
12:30 PM 36.6°F2.6°C 24.4°F-4.2°C 61% 4.0 mph SSE6.4 kmh SSE 9.0 mph14.5 kmh 29.90 in1012.5 mb 0.00 in0.0 mm 0.00 in0.0 mm 0.00 in0.0 mm
12:20 PM 36.3°F2.4°C 24.5°F-4.2°C 62% 4.0 mph NNE6.4 kmh NNE 11.0 mph17.7 kmh 29.89 in1012.2 mb 0.00 in0.0 mm 0.00 in0.0 mm 0.00 in0.0 mm
12:10 PM 36.7°F2.6°C 24.5°F-4.2°C 61% 3.0 mph SW4.8 kmh SW 13.0 mph20.9 kmh 29.90 in1012.5 mb 0.00 in0.0 mm 0.00 in0.0 mm 0.00 in0.0 mm
12:00 PM 37.4°F3.0°C 24.8°F-4.0°C 60% 9.0 mph ENE14.5 kmh ENE 11.0 mph17.7 kmh 29.90 in1012.5 mb 0.00 in0.0 mm 0.00 in0.0 mm 0.00 in0.0 mm
11:50 AM 37.4°F3.0°C 24.8°F-4.0°C 60% 3.0 mph SE4.8 kmh SE 7.0 mph11.3 kmh 29.90 in1012.5 mb 0.00 in0.0 mm 0.00 in0.0 mm 0.00 in0.0 mm
11:40 AM 37.0°F2.8°C 25.6°F-3.6°C 63% 1.0 mph SSE1.6 kmh SSE 3.0 mph4.8 kmh 29.90 in1012.5 mb 0.00 in0.0 mm 0.00 in0.0 mm 0.00 in0.0 mm
11:30 AM 36.4°F2.4°C 25.0°F-3.9°C 63% 3.0 mph N4.8 kmh N 4.0 mph6.4 kmh 29.90 in1012.5 mb 0.00 in0.0 mm 0.00 in0.0 mm 0.00 in0.0 mm
11:20 AM 35.5°F1.9°C 24.9°F-3.9°C 65% 2.0 mph S3.2 kmh S 3.0 mph4.8 kmh 29.90 in1012.5 mb 0.00 in0.0 mm 0.00 in0.0 mm 0.00 in0.0 mm
11:10 AM 34.5°F1.4°C 24.7°F-4.1°C 67% 10.0 mph NNE16.1 kmh NNE 13.0 mph20.9 kmh 29.91 in1012.9 mb 0.00 in0.0 mm 0.00 in0.0 mm 0.00 in0.0 mm
11:00 AM 34.3°F1.3°C 24.1°F-4.4°C 66% 11.0 mph N17.7 kmh N 11.0 mph17.7 kmh 29.91 in1012.9 mb 0.00 in0.0 mm 0.00 in0.0 mm 0.00 in0.0 mm
10:50 AM 34.7°F1.5°C 25.6°F-3.6°C 69% 2.0 mph SW3.2 kmh SW 4.0 mph6.4 kmh 29.92 in1013.2 mb 0.00 in0.0 mm 0.00 in0.0 mm 0.00 in0.0 mm
10:40 AM 34.4°F1.3°C 25.3°F-3.7°C 69% 3.0 mph E4.8 kmh E 9.0 mph14.5 kmh 29.92 in1013.2 mb 0.00 in0.0 mm 0.00 in0.0 mm 0.00 in0.0 mm
10:30 AM 34.0°F1.1°C 24.9°F-3.9°C 69% 3.0 mph ENE4.8 kmh ENE 5.0 mph8.0 kmh 29.92 in1013.2 mb 0.00 in0.0 mm 0.00 in0.0 mm 0.00 in0.0 mm
10:20 AM 34.2°F1.2°C 25.1°F-3.8°C 69% 2.0 mph ENE3.2 kmh ENE 4.0 mph6.4 kmh 29.92 in1013.2 mb 0.00 in0.0 mm 0.00 in0.0 mm 0.00 in0.0 mm
10:10 AM 35.0°F1.7°C 25.2°F-3.8°C 67% 4.0 mph NE6.4 kmh NE 11.0 mph17.7 kmh 29.93 in1013.5 mb 0.00 in0.0 mm 0.00 in0.0 mm 0.00 in0.0 mm
10:00 AM 35.2°F1.8°C 26.1°F-3.3°C 69% 6.0 mph E9.7 kmh E 6.0 mph9.7 kmh 29.92 in1013.2 mb 0.00 in0.0 mm 0.00 in0.0 mm 0.00 in0.0 mm
09:50 AM 34.6°F1.4°C 25.8°F-3.4°C 70% 7.0 mph E11.3 kmh E 8.0 mph12.9 kmh 29.91 in1012.9 mb 0.00 in0.0 mm 0.00 in0.0 mm 0.00 in0.0 mm
09:40 AM 34.5°F1.4°C 25.4°F-3.7°C 69% 6.0 mph E9.7 kmh E 7.0 mph11.3 kmh 29.91 in1012.9 mb 0.00 in0.0 mm 0.00 in0.0 mm 0.00 in0.0 mm
09:30 AM 34.3°F1.3°C 25.9°F-3.4°C 71% 4.0 mph W6.4 kmh W 9.0 mph14.5 kmh 29.90 in1012.5 mb 0.00 in0.0 mm 0.00 in0.0 mm 0.00 in0.0 mm
09:20 AM 33.8°F1.0°C 25.7°F-3.5°C 72% 3.0 mph ENE4.8 kmh ENE 6.0 mph9.7 kmh 29.89 in1012.2 mb 0.00 in0.0 mm 0.00 in0.0 mm 0.00 in0.0 mm
09:10 AM 33.7°F0.9°C 25.7°F-3.5°C 72% 6.0 mph NE9.7 kmh NE 9.0 mph14.5 kmh 29.89 in1012.2 mb 0.00 in0.0 mm 0.00 in0.0 mm 0.00 in0.0 mm
09:00 AM 33.9°F1.1°C 26.5°F-3.1°C 74% 7.0 mph NE11.3 kmh NE 9.0 mph14.5 kmh 29.90 in1012.5 mb 0.00 in0.0 mm 0.00 in0.0 mm 0.00 in0.0 mm
08:50 AM 33.9°F1.1°C 26.2°F-3.2°C 73% 7.0 mph W11.3 kmh W 10.0 mph16.1 kmh 29.89 in1012.2 mb 0.00 in0.0 mm 0.00 in0.0 mm 0.00 in0.0 mm
08:40 AM 34.1°F1.2°C 26.4°F-3.1°C 73% 8.0 mph NNE12.9 kmh NNE 18.0 mph29.0 kmh 29.88 in1011.9 mb 0.00 in0.0 mm 0.00 in0.0 mm 0.00 in0.0 mm
08:30 AM 34.1°F1.2°C 26.7°F-2.9°C 74% 6.0 mph NNE9.7 kmh NNE 8.0 mph12.9 kmh 29.89 in1012.2 mb 0.00 in0.0 mm 0.00 in0.0 mm 0.00 in0.0 mm
08:20 AM 34.1°F1.2°C 27.0°F-2.8°C 75% 3.0 mph SE4.8 kmh SE 6.0 mph9.7 kmh 29.88 in1011.9 mb 0.00 in0.0 mm 0.00 in0.0 mm 0.00 in0.0 mm
08:10 AM 33.8°F1.0°C 27.1°F-2.7°C 76% 3.0 mph N4.8 kmh N 9.0 mph14.5 kmh 29.87 in1011.5 mb 0.00 in0.0 mm 0.00 in0.0 mm 0.00 in0.0 mm
08:00 AM 33.5°F0.8°C 26.4°F-3.1°C 75% 2.0 mph WNW3.2 kmh WNW 10.0 mph16.1 kmh 29.87 in1011.5 mb 0.00 in0.0 mm 0.00 in0.0 mm 0.00 in0.0 mm
07:50 AM 33.5°F0.8°C 26.8°F-2.9°C 76% 2.0 mph SE3.2 kmh SE 4.0 mph6.4 kmh 29.87 in1011.5 mb 0.00 in0.0 mm 0.00 in0.0 mm 0.00 in0.0 mm
07:40 AM 33.5°F0.8°C 26.8°F-2.9°C 76% 3.0 mph NNE4.8 kmh NNE 5.0 mph8.0 kmh 29.86 in1011.2 mb 0.00 in0.0 mm 0.00 in0.0 mm 0.00 in0.0 mm
07:30 AM 33.6°F0.9°C 26.9°F-2.8°C 76% 1.0 mph WNW1.6 kmh WNW 4.0 mph6.4 kmh 29.86 in1011.2 mb 0.00 in0.0 mm 0.00 in0.0 mm 0.00 in0.0 mm
07:20 AM 33.8°F1.0°C 27.4°F-2.6°C 77% 2.0 mph ENE3.2 kmh ENE 6.0 mph9.7 kmh 29.85 in1010.8 mb 0.00 in0.0 mm 0.00 in0.0 mm 0.00 in0.0 mm
07:10 AM 34.0°F1.1°C 27.6°F-2.4°C 77% 4.0 mph NNE6.4 kmh NNE 4.0 mph6.4 kmh 29.84 in1010.5 mb 0.00 in0.0 mm 0.00 in0.0 mm 0.00 in0.0 mm
07:00 AM 34.2°F1.2°C 28.1°F-2.2°C 78% 5.0 mph NE8.0 kmh NE 6.0 mph9.7 kmh 29.84 in1010.5 mb 0.00 in0.0 mm 0.00 in0.0 mm 0.00 in0.0 mm
06:50 AM 34.3°F1.3°C 27.9°F-2.3°C 77% 6.0 mph ENE9.7 kmh ENE 10.0 mph16.1 kmh 29.84 in1010.5 mb 0.00 in0.0 mm 0.00 in0.0 mm 0.00 in0.0 mm
06:40 AM 34.4°F1.3°C 28.3°F-2.1°C 78% 3.0 mph SE4.8 kmh SE 8.0 mph12.9 kmh 29.83 in1010.2 mb 0.00 in0.0 mm 0.00 in0.0 mm 0.00 in0.0 mm
06:30 AM 34.6°F1.4°C 28.5°F-1.9°C 78% 2.0 mph E3.2 kmh E 8.0 mph12.9 kmh 29.82 in1009.8 mb 0.00 in0.0 mm 0.00 in0.0 mm 0.00 in0.0 mm
06:20 AM 34.7°F1.5°C 28.9°F-1.7°C 79% 4.0 mph NNW6.4 kmh NNW 11.0 mph17.7 kmh 29.81 in1009.5 mb 0.00 in0.0 mm 0.00 in0.0 mm 0.00 in0.0 mm
06:10 AM 34.8°F1.6°C 29.3°F-1.5°C 80% 3.0 mph E4.8 kmh E 6.0 mph9.7 kmh 29.80 in1009.1 mb 0.00 in0.0 mm 0.00 in0.0 mm 0.00 in0.0 mm
06:00 AM 35.0°F1.7°C 29.5°F-1.4°C 80% 3.0 mph ESE4.8 kmh ESE 6.0 mph9.7 kmh 29.79 in1008.8 mb 0.00 in0.0 mm 0.00 in0.0 mm 0.00 in0.0 mm
05:50 AM 35.2°F1.8°C 29.7°F-1.3°C 80% 6.0 mph SE9.7 kmh SE 6.0 mph9.7 kmh 29.79 in1008.8 mb 0.00 in0.0 mm 0.00 in0.0 mm 0.00 in0.0 mm
05:40 AM 35.3°F1.8°C 29.8°F-1.2°C 80% 4.0 mph NE6.4 kmh NE 6.0 mph9.7 kmh 29.78 in1008.5 mb 0.00 in0.0 mm 0.00 in0.0 mm 0.00 in0.0 mm
05:30 AM 35.4°F1.9°C 29.9°F-1.2°C 80% 4.0 mph E6.4 kmh E 4.0 mph6.4 kmh 29.78 in1008.5 mb 0.00 in0.0 mm 0.00 in0.0 mm 0.00 in0.0 mm
05:20 AM 35.4°F1.9°C 29.9°F-1.2°C 80% 3.0 mph ENE4.8 kmh ENE 7.0 mph11.3 kmh 29.78 in1008.5 mb 0.00 in0.0 mm 0.00 in0.0 mm 0.00 in0.0 mm
05:10 AM 35.4°F1.9°C 29.9°F-1.2°C 80% 2.0 mph NNE3.2 kmh NNE 7.0 mph11.3 kmh 29.77 in1008.1 mb 0.00 in0.0 mm 0.00 in0.0 mm 0.00 in0.0 mm
05:00 AM 35.5°F1.9°C 30.3°F-0.9°C 81% 5.0 mph E8.0 kmh E 8.0 mph12.9 kmh 29.76 in1007.8 mb 0.00 in0.0 mm 0.00 in0.0 mm 0.00 in0.0 mm
04:50 AM 35.5°F1.9°C 30.3°F-0.9°C 81% 4.0 mph NE6.4 kmh NE 10.0 mph16.1 kmh 29.75 in1007.5 mb 0.00 in0.0 mm 0.00 in0.0 mm 0.00 in0.0 mm
04:40 AM 35.4°F1.9°C 30.8°F-0.7°C 83% 6.0 mph ENE9.7 kmh ENE 7.0 mph11.3 kmh 29.75 in1007.5 mb 0.00 in0.0 mm 0.00 in0.0 mm 0.00 in0.0 mm
04:30 AM 35.3°F1.8°C 31.3°F-0.4°C 85% 1.0 mph SE1.6 kmh SE 4.0 mph6.4 kmh 29.75 in1007.5 mb 0.00 in0.0 mm 0.00 in0.0 mm 0.00 in0.0 mm
04:20 AM 35.3°F1.8°C 31.8°F-0.1°C 87% 4.0 mph ESE6.4 kmh ESE 4.0 mph6.4 kmh 29.74 in1007.1 mb 0.00 in0.0 mm 0.00 in0.0 mm 0.00 in0.0 mm
04:10 AM 35.3°F1.8°C 32.1°F0.1°C 88% 2.0 mph ESE3.2 kmh ESE 3.0 mph4.8 kmh 29.74 in1007.1 mb 0.00 in0.0 mm 0.00 in0.0 mm 0.00 in0.0 mm
04:00 AM 35.3°F1.8°C 32.4°F0.2°C 89% 2.0 mph S3.2 kmh S 3.0 mph4.8 kmh 29.74 in1007.1 mb 0.00 in0.0 mm 0.00 in0.0 mm 0.00 in0.0 mm
03:50 AM 35.3°F1.8°C 32.7°F0.4°C 90% 2.0 mph NE3.2 kmh NE 3.0 mph4.8 kmh 29.73 in1006.8 mb 0.00 in0.0 mm 0.00 in0.0 mm 0.00 in0.0 mm
03:40 AM 35.3°F1.8°C 32.7°F0.4°C 90% Calm Calm -- 29.73 in1006.8 mb 0.00 in0.0 mm 0.00 in0.0 mm 0.00 in0.0 mm
03:30 AM 35.1°F1.7°C 32.5°F0.3°C 90% 2.0 mph E3.2 kmh E 6.0 mph9.7 kmh 29.73 in1006.8 mb 0.00 in0.0 mm 0.00 in0.0 mm 0.00 in0.0 mm
03:20 AM 35.2°F1.8°C 32.8°F0.4°C 91% Calm Calm -- 29.72 in1006.4 mb 0.00 in0.0 mm 0.00 in0.0 mm 0.00 in0.0 mm
03:10 AM 35.2°F1.8°C 33.1°F0.6°C 92% 1.0 mph SE1.6 kmh SE 1.0 mph1.6 kmh 29.72 in1006.4 mb 0.00 in0.0 mm 0.00 in0.0 mm 0.00 in0.0 mm
03:00 AM 35.1°F1.7°C 33.0°F0.6°C 92% Calm Calm -- 29.72 in1006.4 mb 0.00 in0.0 mm 0.00 in0.0 mm 0.00 in0.0 mm
02:50 AM 35.1°F1.7°C 33.0°F0.6°C 92% Calm Calm 2.0 mph3.2 kmh 29.72 in1006.4 mb 0.00 in0.0 mm 0.00 in0.0 mm 0.00 in0.0 mm
02:40 AM 35.0°F1.7°C 33.2°F0.7°C 93% 3.0 mph ENE4.8 kmh ENE 3.0 mph4.8 kmh 29.72 in1006.4 mb 0.00 in0.0 mm 0.00 in0.0 mm 0.00 in0.0 mm
02:30 AM 35.2°F1.8°C 33.4°F0.8°C 93% Calm Calm -- 29.72 in1006.4 mb 0.00 in0.0 mm 0.00 in0.0 mm 0.00 in0.0 mm
02:20 AM 35.4°F1.9°C 33.6°F0.9°C 93% Calm Calm -- 29.71 in1006.1 mb 0.00 in0.0 mm 0.00 in0.0 mm 0.00 in0.0 mm
02:10 AM 35.5°F1.9°C 34.0°F1.1°C 94% Calm Calm -- 29.72 in1006.4 mb 0.00 in0.0 mm 0.00 in0.0 mm 0.00 in0.0 mm
02:00 AM 35.7°F2.1°C 34.2°F1.2°C 94% Calm Calm -- 29.71 in1006.1 mb 0.00 in0.0 mm 0.00 in0.0 mm 0.00 in0.0 mm
01:50 AM 36.1°F2.3°C 34.5°F1.4°C 94% Calm Calm -- 29.71 in1006.1 mb 0.00 in0.0 mm 0.00 in0.0 mm 0.00 in0.0 mm
01:40 AM 36.4°F2.4°C 34.8°F1.6°C 94% Calm Calm -- 29.71 in1006.1 mb 0.00 in0.0 mm 0.00 in0.0 mm 0.00 in0.0 mm
01:30 AM 36.4°F2.4°C 35.1°F1.7°C 95% Calm Calm 1.0 mph1.6 kmh 29.70 in1005.8 mb 0.00 in0.0 mm 0.00 in0.0 mm 0.00 in0.0 mm
01:20 AM 36.3°F2.4°C 35.0°F1.7°C 95% Calm Calm -- 29.70 in1005.8 mb 0.00 in0.0 mm 0.00 in0.0 mm 0.00 in0.0 mm
01:10 AM 36.2°F2.3°C 34.9°F1.6°C 95% Calm Calm -- 29.70 in1005.8 mb 0.00 in0.0 mm 0.00 in0.0 mm 0.00 in0.0 mm
01:00 AM 36.1°F2.3°C 35.1°F1.7°C 96% Calm Calm 2.0 mph3.2 kmh 29.69 in1005.4 mb 0.00 in0.0 mm 0.00 in0.0 mm 0.00 in0.0 mm
12:50 AM 36.0°F2.2°C 35.2°F1.8°C 97% Calm Calm 2.0 mph3.2 kmh 29.69 in1005.4 mb 0.00 in0.0 mm 0.00 in0.0 mm 0.00 in0.0 mm
12:40 AM 35.9°F2.2°C 35.1°F1.7°C 97% Calm Calm 1.0 mph1.6 kmh 29.68 in1005.1 mb 0.00 in0.0 mm 0.00 in0.0 mm 0.00 in0.0 mm
12:30 AM 35.6°F2.0°C 34.8°F1.6°C 97% Calm Calm 1.0 mph1.6 kmh 29.68 in1005.1 mb 0.00 in0.0 mm 0.00 in0.0 mm 0.00 in0.0 mm
12:20 AM 35.7°F2.1°C 34.9°F1.6°C 97% Calm Calm 2.0 mph3.2 kmh 29.68 in1005.1 mb 0.00 in0.0 mm 0.00 in0.0 mm 0.00 in0.0 mm
12:10 AM 35.6°F2.0°C 34.8°F1.6°C 97% Calm Calm -- 29.69 in1005.4 mb 0.00 in0.0 mm 0.00 in0.0 mm 0.00 in0.0 mm
12:00 AM 35.7°F2.1°C 34.9°F1.6°C 97% Calm Calm -- 29.69 in1005.4 mb 0.00 in0.0 mm 0.00 in0.0 mm 0.00 in0.0 mm